Latest Coastal Weather Observations for Dennes Point

IDT60701

Issued at 6:52 am EST Tuesday 24 September 2019 (issued every 10 minutes, with the page automatically refreshed every 10 minutes)

About coastal observations | Map of coastal stations | Coastal observations for TAS | Marine services | Other Formats
Station Details ID: 094255 Name: DENNES POINT Lat: -43.06 Lon: 147.36 Height: 5.67 m
Data from the previous 72 hours. | See also: Recent months at Dennes Point
Date/Time
EST
Wind Sea
Height
m
Swell Vis
km
Cloud Weather Temp
°C
Press
hPa
Rain since
9am
mm
Dir  Spd
kts
Gust
kts
Height
m
Period
s
Dir
24/06:30am WNW 10 14 - - - - - - - 9.6 1017.7 0.0
24/06:00am WNW 14 18 - - - - - - - 9.0 1017.5 0.0
24/05:30am W 15 19 - - - - - - - 9.1 1017.4 0.0
24/05:00am W 14 17 - - - - - - - 9.0 1017.5 0.0
24/04:30am W 16 26 - - - - - - - 8.9 1017.5 0.0
24/04:22am W 16 26 - - - - - - - 9.1 1017.5 0.0
24/04:00am W 17 22 - - - - - - - 9.1 1017.6 0.0
24/03:30am W 16 20 - - - - - - - 9.1 1017.6 0.0
24/03:00am W 15 24 - - - - - - - 9.1 1017.6 0.0
24/02:30am W 11 15 - - - - - - - 8.9 1018.0 0.0
24/02:00am W 17 24 - - - - - - - 9.5 1018.1 0.0
24/01:30am W 14 18 - - - - - - - 9.3 1018.3 0.0
24/01:00am W 16 20 - - - - - - - 9.6 1018.3 0.0
24/12:30am W 10 16 - - - - - - - 9.5 1018.7 0.0
24/12:00am WNW 8 13 - - - - - - - 9.7 1018.6 0.0
 
Date/Time
EST
Wind Sea
Height
m
Swell Vis
km
Cloud Weather Temp
°C
Press
hPa
Rain since
9am
mm
Dir  Spd
kts
Gust
kts
Height
m
Period
s
Dir
23/11:30pm WNW 3 5 - - - - - - - 9.6 1018.8 0.0
23/11:00pm NW 4 5 - - - - - - - 10.0 1019.1 0.0
23/10:30pm NW 4 7 - - - - - - - 10.0 1019.3 0.0
23/10:00pm NW 5 7 - - - - - - - 10.0 1019.7 0.0
23/09:30pm WNW 5 7 - - - - - - - 9.1 1019.7 0.0
23/09:00pm WNW 6 8 - - - - - - - 9.7 1019.9 0.0
23/08:30pm W 11 13 - - - - - - - 9.5 1019.9 0.0
23/08:00pm W 13 19 - - - - - - - 9.8 1019.9 0.0
23/07:30pm W 10 15 - - - - - - - 9.9 1019.8 0.0
23/07:00pm WNW 8 12 - - - - - - - 10.3 1019.5 0.0
23/06:30pm W 9 17 - - - - - - - 10.7 1019.3 0.0
23/06:00pm WSW 10 13 - - - - - - - 10.5 1018.9 0.0
23/05:30pm WSW 12 15 - - - - - - - 11.1 1018.7 0.0
23/05:00pm WSW 11 15 - - - - - - - 12.2 1018.4 0.0
23/04:30pm SW 11 18 - - - - - - - 12.5 1018.2 0.0
23/04:00pm NE 6 8 - - - - - - - 11.6 1018.0 0.0
23/03:30pm ESE 8 9 - - - - - - - 11.6 1017.8 0.0
23/03:00pm ENE 5 6 - - - - - - - 12.2 1017.8 0.0
23/02:30pm NW 2 3 - - - - - - - 12.6 1017.6 0.0
23/02:00pm SSE 3 8 - - - - - - - 12.8 1017.6 0.0
23/01:30pm NNW 1 2 - - - - - - - 13.3 1017.7 0.0
23/01:00pm SSW 7 12 - - - - - - - 11.8 1017.9 0.0
23/12:30pm W 4 6 - - - - - - - 12.7 1017.9 0.0
23/12:00pm SW 5 8 - - - - - - - 12.7 1018.0 0.0
23/11:30am SSW 7 9 - - - - - - - 12.0 1018.3 0.0
23/11:00am WSW 8 13 - - - - - - - 12.5 1018.2 0.0
23/10:30am WSW 9 12 - - - - - - - 12.0 1018.4 0.0
23/10:00am NNW 3 5 - - - - - - - 11.6 1018.6 0.0
23/09:30am NW 3 5 - - - - - - - 11.1 1018.6 0.0
23/09:00am W 2 3 - - - - - - - 10.9 1018.6 0.0
23/08:30am SW 4 5 - - - - - - - 9.6 1018.6 0.0
23/08:00am SW 5 7 - - - - - - - 8.0 1018.6 0.0
23/07:30am SW 5 6 - - - - - - - 7.3 1018.5 0.0
23/07:00am SW 5 7 - - - - - - - 6.1 1018.4 0.0
23/06:30am SW 4 5 - - - - - - - 5.6 1018.2 0.0
23/06:00am SW 3 4 - - - - - - - 5.8 1018.1 0.0
23/05:30am SW 4 4 - - - - - - - 5.6 1017.9 0.0
23/05:00am NNW 5 6 - - - - - - - 8.2 1017.7 0.0
23/04:30am NW 7 9 - - - - - - - 8.2 1017.6 0.0
23/04:00am NNW 7 9 - - - - - - - 7.8 1017.6 0.0
23/03:30am SSW 3 5 - - - - - - - 5.6 1017.8 0.0
23/03:00am SSW 4 6 - - - - - - - 5.4 1017.7 0.0
23/02:30am CALM 0 1 - - - - - - - 6.4 1017.8 0.0
23/02:00am SSW 2 3 - - - - - - - 6.5 1018.0 0.0
23/01:30am SW 2 3 - - - - - - - 6.4 1018.2 0.0
23/01:00am WSW 2 4 - - - - - - - 6.5 1018.4 0.0
23/12:30am SSW 3 4 - - - - - - - 6.7 1018.6 0.0
23/12:00am SW 2 2 - - - - - - - 6.6 1018.6 0.0
 
Date/Time
EST
Wind Sea
Height
m
Swell Vis
km
Cloud Weather Temp
°C
Press
hPa
Rain since
9am
mm
Dir  Spd
kts
Gust
kts
Height
m
Period
s
Dir
22/11:30pm SSW 1 3 - - - - - - - 6.8 1018.6 0.0
22/11:00pm W 3 5 - - - - - - - 7.0 1018.8 0.0
22/10:30pm NW 4 6 - - - - - - - 8.1 1019.1 0.0
22/10:00pm W 9 11 - - - - - - - 7.8 1018.9 0.0
22/09:30pm W 6 9 - - - - - - - 7.8 1019.1 0.0
22/09:00pm WNW 5 7 - - - - - - - 8.3 1019.0 0.0
22/08:30pm NW 5 6 - - - - - - - 8.4 1018.8 0.0
22/08:00pm SW 2 3 - - - - - - - 7.7 1018.7 0.0
22/07:30pm CALM 0 0 - - - - - - - 8.0 1018.5 0.0
22/07:00pm WSW 3 5 - - - - - - - 7.9 1018.4 0.0
22/06:30pm WNW 4 6 - - - - - - - 8.4 1018.1 0.0
22/06:00pm NW 5 6 - - - - - - - 9.1 1017.7 0.0
22/05:30pm W 12 15 - - - - - - - 9.4 1017.5 0.0
22/05:00pm WSW 15 18 - - - - - - - 10.1 1017.1 0.0
22/04:30pm W 14 17 - - - - - - - 9.8 1016.8 0.0
22/04:00pm W 13 17 - - - - - - - 10.5 1016.6 0.0
22/03:30pm WSW 21 29 - - - - - - - 9.6 1016.2 0.0
22/03:25pm WSW 17 27 - - - - - - - 9.9 1016.1 0.0
22/03:00pm WSW 11 15 - - - - - - - 10.1 1016.2 0.0
22/02:30pm W 11 23 - - - - - - - 10.4 1016.0 0.0
22/02:00pm WSW 17 21 - - - - - - - 10.0 1016.1 0.0
22/01:52pm WSW 20 26 - - - - - - - 9.5 1016.2 0.0
22/01:30pm W 16 23 - - - - - - - 10.9 1015.9 0.0
22/01:00pm W 15 21 - - - - - - - 11.8 1015.8 0.0
22/12:30pm W 13 17 - - - - - - - 10.9 1015.9 0.0
22/12:00pm SW 15 20 - - - - - - - 9.1 1016.1 0.0
22/11:58am SW 15 21 - - - - - - - 8.9 1016.2 0.0
22/11:30am SW 8 11 - - - - - - - 11.1 1015.9 0.0
22/11:00am W 16 20 - - - - - - - 11.6 1015.7 0.0
22/10:30am WSW 13 18 - - - - - - - 10.8 1015.6 0.0
22/10:00am W 14 20 - - - - - - - 10.9 1015.6 0.0
22/09:30am W 13 16 - - - - - - - 10.7 1015.5 0.0
22/09:00am W 11 15 - - - - - - - 9.5 1015.4 0.0
22/08:30am W 13 20 - - - - - - - 9.1 1015.1 0.0
22/08:00am W 11 14 - - - - - - - 8.9 1014.8 0.0
22/07:30am W 9 12 - - - - - - - 8.6 1014.4 0.0
22/07:00am W 8 10 - - - - - - - 8.4 1014.1 0.0
22/06:30am WSW 8 10 - - - - - - - 8.1 1013.8 0.0
22/06:00am W 6 8 - - - - - - - 8.1 1013.3 0.0
22/05:30am W 8 10 - - - - - - - 7.6 1012.7 0.0
22/05:00am W 7 8 - - - - - - - 7.9 1012.2 0.0
22/04:30am WNW 4 7 - - - - - - - 8.3 1011.8 0.0
22/04:00am WSW 7 10 - - - - - - - 8.0 1011.5 0.0
22/03:30am WSW 11 14 - - - - - - - 8.5 1011.0 0.0
22/03:00am W 17 23 - - - - - - - 8.8 1010.2 0.0
22/02:30am W 19 23 - - - - - - - 8.9 1009.9 0.0
22/02:00am WSW 18 25 - - - - - - - 9.1 1009.6 0.0
22/01:30am WSW 16 20 - - - - - - - 9.1 1009.5 0.0
22/01:00am SW 14 20 - - - - - - - 9.4 1009.4 0.0
22/12:30am WSW 17 23 - - - - - - - 9.5 1008.9 0.0
22/12:00am WSW 18 35 - - - - - - - 10.1 1008.2 0.0
 
Date/Time
EST
Wind Sea
Height
m
Swell Vis
km
Cloud Weather Temp
°C
Press
hPa
Rain since
9am
mm
Dir  Spd
kts
Gust
kts
Height
m
Period
s
Dir
21/11:35pm WSW 15 25 - - - - - - - 10.0 1007.7 0.0
21/11:30pm WSW 15 22 - - - - - - - 10.1 1007.7 0.0
21/11:00pm W 14 22 - - - - - - - 10.3 1007.3 0.0
21/10:54pm W 15 25 - - - - - - - 10.3 1007.1 0.0
21/10:30pm W 10 16 - - - - - - - 10.6 1006.0 0.0
21/10:00pm NW 7 23 - - - - - - - 11.1 1005.1 0.0
21/09:30pm WNW 12 27 - - - - - - - 11.4 1003.9 0.0
21/09:23pm WNW 18 33 - - - - - - - 11.3 1003.5 0.0
21/09:00pm W 22 36 - - - - - - - 11.4 1001.9 0.0
21/08:30pm WNW 21 33 - - - - - - - 12.7 1001.1 0.0
21/08:11pm NW 17 34 - - - - - - - 14.7 999.9 0.0
21/08:03pm NW 19 27 - - - - - - - 15.4 999.4 0.0
21/08:00pm NW 20 29 - - - - - - - 15.5 999.4 0.0
21/07:31pm NNW 22 32 - - - - - - - 16.4 998.2 0.0
21/07:30pm NNW 20 27 - - - - - - - 16.5 998.3 0.0
21/07:24pm NNW 17 26 - - - - - - - 16.5 998.0 0.0
21/07:00pm NW 11 16 - - - - - - - 17.1 997.9 0.0
21/06:30pm NNW 14 25 - - - - - - - 16.8 998.2 0.0
21/06:29pm NNW 13 25 - - - - - - - 17.2 998.2 0.0
21/06:00pm NNE 4 6 - - - - - - - 16.4 997.9 0.0
21/05:30pm N 10 14 - - - - - - - 16.5 998.7 0.0
21/05:00pm N 11 17 - - - - - - - 17.2 998.9 0.0
21/04:30pm N 5 9 - - - - - - - 17.1 998.7 0.0
21/04:00pm NNE 12 16 - - - - - - - 15.9 998.5 0.0
21/03:30pm NNE 19 26 - - - - - - - 17.0 998.7 0.0
21/03:00pm NNE 16 18 - - - - - - - 16.8 999.8 0.0
21/02:55pm NNE 15 18 - - - - - - - 17.0 1000.0 0.0
21/02:30pm E 4 8 - - - - - - - 18.1 1000.1 0.0
21/02:00pm ESE 4 6 - - - - - - - 17.7 1001.0 0.0
21/01:30pm N 3 5 - - - - - - - 15.5 1001.8 0.0
21/01:00pm N 4 5 - - - - - - - 14.4 1001.9 0.0
21/12:30pm N 5 7 - - - - - - - 14.3 1002.9 0.0
21/12:00pm N 8 9 - - - - - - - 14.5 1003.9 0.0
21/11:30am N 8 10 - - - - - - - 14.6 1004.4 0.0
21/11:00am NNW 11 14 - - - - - - - 14.0 1005.1 0.0
21/10:30am NNW 10 12 - - - - - - - 13.8 1005.5 0.0
21/10:00am ENE 2 3 - - - - - - - 13.8 1005.6 0.0
21/09:30am ESE 5 7 - - - - - - - 13.9 1006.1 0.0
21/09:00am ESE 6 8 - - - - - - - 13.7 1006.8 0.0
21/08:30am E 2 4 - - - - - - - 12.7 1007.3 0.0
21/08:00am ENE 3 5 - - - - - - - 12.5 1007.7 0.0
21/07:30am E 5 6 - - - - - - - 12.6 1008.0 0.0
21/07:00am ENE 4 6 - - - - - - - 12.6 1008.5 0.0

Other formats

Comma delimited format used in spreadsheet applications
http://www.bom.gov.au/fwo/IDT60701/IDT60701.94988.axf

JavaScript Object Notation format (JSON) in row-major order
http://www.bom.gov.au/fwo/IDT60701/IDT60701.94988.json

Data quality

Most of these data are generated automatically and are frequently updated. Quality checks on data are not normally performed. It is possible for incorrect values to appear. Refer to information at About Latest Weather Observations and please check the disclaimer before using these data.